CPA990 VHHH-ZSFZ
Flight info
| Callsign | CPA990 |
|---|---|
| Flight time | 1h 6m |
| Altitude | 37100 |
| Route | LEKEN V601 DOTMI A470 ENVEN ENV91A |
| Aircraft | A21N/M-SDE3FGHIRWY/LB1 |
Departure
| Time | 2026-05-04 00:41 |
|---|---|
| Airport | Hong Kong International Airport (VHHH) |
Arrival
| Time | 2026-05-04 01:47 |
|---|---|
| Airport | Fuzhou Changle International Airport (ZSFZ) |
| Time | Latitude | Longitude | Altitude | Speed | Heading |
|---|---|---|---|---|---|
| 2026-05-04 00:12 | 22.31396 | 113.92705 | 32 ft | 0 kts | 205° |
| 2026-05-04 00:27 | 22.31404 | 113.92709 | 32 ft | 2 kts | 205° |
| 2026-05-04 00:28 | 22.31417 | 113.92715 | 32 ft | 2 kts | 205° |
| 2026-05-04 00:28 | 22.31431 | 113.92722 | 32 ft | 2 kts | 205° |
| 2026-05-04 00:28 | 22.31445 | 113.92730 | 32 ft | 2 kts | 206° |
| 2026-05-04 00:28 | 22.31459 | 113.92737 | 32 ft | 2 kts | 209° |
| 2026-05-04 00:29 | 22.31470 | 113.92747 | 32 ft | 2 kts | 229° |
| 2026-05-04 00:29 | 22.31479 | 113.92760 | 32 ft | 2 kts | 244° |
| 2026-05-04 00:29 | 22.31484 | 113.92776 | 32 ft | 2 kts | 259° |
| 2026-05-04 00:29 | 22.31485 | 113.92790 | 32 ft | 1 kts | 272° |
| 2026-05-04 00:30 | 22.31485 | 113.92793 | 32 ft | 0 kts | 275° |
| 2026-05-04 00:31 | 22.31485 | 113.92791 | 32 ft | 0 kts | 275° |
| 2026-05-04 00:32 | 22.31486 | 113.92780 | 32 ft | 2 kts | 276° |
| 2026-05-04 00:32 | 22.31490 | 113.92759 | 32 ft | 4 kts | 289° |
| 2026-05-04 00:32 | 22.31510 | 113.92714 | 32 ft | 8 kts | 296° |
| 2026-05-04 00:32 | 22.31538 | 113.92651 | 32 ft | 9 kts | 296° |
| 2026-05-04 00:33 | 22.31570 | 113.92581 | 32 ft | 10 kts | 297° |
| 2026-05-04 00:33 | 22.31643 | 113.92424 | 32 ft | 12 kts | 288° |
| 2026-05-04 00:33 | 22.31630 | 113.92333 | 32 ft | 12 kts | 251° |
| 2026-05-04 00:34 | 22.31600 | 113.92239 | 32 ft | 13 kts | 250° |
| 2026-05-04 00:34 | 22.31567 | 113.92140 | 32 ft | 14 kts | 250° |
| 2026-05-04 00:34 | 22.31534 | 113.92039 | 32 ft | 14 kts | 251° |
| 2026-05-04 00:34 | 22.31501 | 113.91933 | 32 ft | 15 kts | 251° |
| 2026-05-04 00:35 | 22.31467 | 113.91824 | 32 ft | 15 kts | 251° |
| 2026-05-04 00:35 | 22.31433 | 113.91711 | 32 ft | 15 kts | 252° |
| 2026-05-04 00:35 | 22.31397 | 113.91599 | 32 ft | 15 kts | 252° |
| 2026-05-04 00:35 | 22.31359 | 113.91484 | 32 ft | 16 kts | 246° |
| 2026-05-04 00:36 | 22.31321 | 113.91371 | 32 ft | 16 kts | 249° |
| 2026-05-04 00:36 | 22.31281 | 113.91258 | 32 ft | 16 kts | 249° |
| 2026-05-04 00:36 | 22.31245 | 113.91141 | 32 ft | 16 kts | 253° |
| 2026-05-04 00:36 | 22.31208 | 113.91022 | 32 ft | 16 kts | 250° |
| 2026-05-04 00:37 | 22.31170 | 113.90904 | 32 ft | 16 kts | 250° |
| 2026-05-04 00:37 | 22.31130 | 113.90784 | 32 ft | 16 kts | 250° |
| 2026-05-04 00:37 | 22.31091 | 113.90664 | 32 ft | 17 kts | 251° |
| 2026-05-04 00:37 | 22.31052 | 113.90541 | 32 ft | 17 kts | 252° |
| 2026-05-04 00:38 | 22.31011 | 113.90421 | 32 ft | 17 kts | 251° |
| 2026-05-04 00:38 | 22.30973 | 113.90298 | 32 ft | 17 kts | 252° |
| 2026-05-04 00:38 | 22.30933 | 113.90174 | 32 ft | 17 kts | 251° |
| 2026-05-04 00:38 | 22.30907 | 113.90055 | 32 ft | 14 kts | 297° |
| 2026-05-04 00:39 | 22.30997 | 113.90003 | 32 ft | 14 kts | 341° |
| 2026-05-04 00:39 | 22.31096 | 113.89968 | 32 ft | 15 kts | 342° |
| 2026-05-04 00:39 | 22.31165 | 113.90022 | 32 ft | 9 kts | 72° |
| 2026-05-04 00:39 | 22.31172 | 113.90046 | 32 ft | 0 kts | 72° |
| 2026-05-04 00:40 | 22.31181 | 113.90077 | 32 ft | 20 kts | 71° |
| 2026-05-04 00:40 | 22.31334 | 113.90543 | 32 ft | 106 kts | 71° |
| 2026-05-04 00:40 | 22.31650 | 113.91556 | 63 ft | 169 kts | 70° |
| 2026-05-04 00:40 | 22.32057 | 113.92844 | 513 ft | 190 kts | 70° |
| 2026-05-04 00:41 | 22.32486 | 113.94212 | 1358 ft | 196 kts | 69° |
| 2026-05-04 00:41 | 22.32943 | 113.95561 | 2405 ft | 191 kts | 67° |
| 2026-05-04 00:41 | 22.33402 | 113.96970 | 3093 ft | 207 kts | 73° |
| 2026-05-04 00:41 | 22.33709 | 113.98580 | 3662 ft | 230 kts | 79° |
| 2026-05-04 00:42 | 22.33975 | 114.00317 | 4516 ft | 238 kts | 80° |
| 2026-05-04 00:42 | 22.34245 | 114.02082 | 5507 ft | 241 kts | 81° |
| 2026-05-04 00:42 | 22.34392 | 114.03876 | 6336 ft | 247 kts | 99° |
| 2026-05-04 00:42 | 22.33707 | 114.05551 | 7151 ft | 249 kts | 132° |
| 2026-05-04 00:43 | 22.32473 | 114.06887 | 7963 ft | 254 kts | 139° |
| 2026-05-04 00:43 | 22.31163 | 114.08184 | 8708 ft | 260 kts | 147° |
| 2026-05-04 00:43 | 22.29536 | 114.08933 | 9437 ft | 257 kts | 176° |
| 2026-05-04 00:43 | 22.27745 | 114.08980 | 10227 ft | 256 kts | 187° |
| 2026-05-04 00:44 | 22.25960 | 114.08871 | 11001 ft | 259 kts | 187° |
| 2026-05-04 00:44 | 22.24152 | 114.08781 | 11740 ft | 263 kts | 187° |
| 2026-05-04 00:44 | 22.22262 | 114.08708 | 12194 ft | 280 kts | 186° |
| 2026-05-04 00:44 | 22.20242 | 114.08659 | 12595 ft | 298 kts | 185° |
| 2026-05-04 00:45 | 22.18072 | 114.08822 | 12945 ft | 322 kts | 169° |
| 2026-05-04 00:45 | 22.15997 | 114.09914 | 13327 ft | 346 kts | 145° |
| 2026-05-04 00:45 | 22.14401 | 114.11929 | 13967 ft | 360 kts | 122° |
| 2026-05-04 00:45 | 22.13257 | 114.14365 | 14725 ft | 364 kts | 119° |
| 2026-05-04 00:46 | 22.12137 | 114.16825 | 15413 ft | 368 kts | 120° |
| 2026-05-04 00:46 | 22.11000 | 114.19282 | 16074 ft | 371 kts | 120° |
| 2026-05-04 00:46 | 22.09828 | 114.21769 | 16729 ft | 375 kts | 121° |
| 2026-05-04 00:46 | 22.08581 | 114.24287 | 17347 ft | 377 kts | 126° |
| 2026-05-04 00:47 | 22.07000 | 114.26514 | 17947 ft | 375 kts | 137° |
| 2026-05-04 00:47 | 22.05037 | 114.28394 | 18555 ft | 373 kts | 147° |
| 2026-05-04 00:47 | 22.02946 | 114.30047 | 19129 ft | 377 kts | 149° |
| 2026-05-04 00:47 | 22.00815 | 114.31685 | 19660 ft | 381 kts | 149° |
| 2026-05-04 00:48 | 21.98641 | 114.33408 | 20193 ft | 388 kts | 144° |
| 2026-05-04 00:48 | 21.96883 | 114.35671 | 20666 ft | 405 kts | 122° |
| 2026-05-04 00:48 | 21.95980 | 114.38563 | 21166 ft | 416 kts | 99° |
| 2026-05-04 00:48 | 21.95954 | 114.41713 | 21684 ft | 422 kts | 88° |
| 2026-05-04 00:49 | 21.96144 | 114.44904 | 22178 ft | 426 kts | 87° |
| 2026-05-04 00:49 | 21.96324 | 114.48103 | 22654 ft | 431 kts | 88° |
| 2026-05-04 00:49 | 21.96395 | 114.51360 | 23203 ft | 432 kts | 93° |
| 2026-05-04 00:49 | 21.96158 | 114.54580 | 23713 ft | 434 kts | 99° |
| 2026-05-04 00:50 | 21.95609 | 114.57797 | 24198 ft | 436 kts | 104° |
| 2026-05-04 00:50 | 21.94916 | 114.61019 | 24681 ft | 439 kts | 105° |
| 2026-05-04 00:50 | 21.94201 | 114.64232 | 25145 ft | 443 kts | 105° |
| 2026-05-04 00:50 | 21.93483 | 114.67481 | 25594 ft | 446 kts | 106° |
| 2026-05-04 00:51 | 21.92771 | 114.70742 | 26016 ft | 450 kts | 105° |
| 2026-05-04 00:51 | 21.92063 | 114.74018 | 26427 ft | 453 kts | 105° |
| 2026-05-04 00:51 | 21.91344 | 114.77365 | 26830 ft | 457 kts | 105° |
| 2026-05-04 00:51 | 21.90628 | 114.80702 | 27222 ft | 460 kts | 105° |
| 2026-05-04 00:52 | 21.89901 | 114.84082 | 27624 ft | 463 kts | 105° |
| 2026-05-04 00:52 | 21.89189 | 114.87496 | 28025 ft | 467 kts | 104° |
| 2026-05-04 00:52 | 21.88689 | 114.90913 | 28405 ft | 471 kts | 98° |
| 2026-05-04 00:52 | 21.88461 | 114.94476 | 28781 ft | 475 kts | 92° |
| 2026-05-04 00:53 | 21.88499 | 114.98041 | 29141 ft | 479 kts | 89° |
| 2026-05-04 00:53 | 21.88629 | 115.01660 | 29523 ft | 481 kts | 88° |
| 2026-05-04 00:53 | 21.88776 | 115.05291 | 29896 ft | 483 kts | 88° |
| 2026-05-04 00:53 | 21.88914 | 115.08893 | 30308 ft | 483 kts | 88° |
| 2026-05-04 00:54 | 21.89041 | 115.12524 | 30715 ft | 484 kts | 89° |
| 2026-05-04 00:54 | 21.89159 | 115.16178 | 31061 ft | 486 kts | 89° |
| 2026-05-04 00:54 | 21.89271 | 115.19804 | 31394 ft | 488 kts | 89° |
| 2026-05-04 00:54 | 21.89382 | 115.23450 | 31719 ft | 490 kts | 89° |
| 2026-05-04 00:55 | 21.89495 | 115.27172 | 32026 ft | 492 kts | 89° |
| 2026-05-04 00:55 | 21.89606 | 115.30830 | 32303 ft | 494 kts | 89° |
| 2026-05-04 00:55 | 21.89718 | 115.34534 | 32582 ft | 496 kts | 89° |
| 2026-05-04 00:55 | 21.89828 | 115.38258 | 32915 ft | 497 kts | 89° |
| 2026-05-04 00:56 | 21.89941 | 115.42020 | 33339 ft | 497 kts | 89° |
| 2026-05-04 00:56 | 21.90048 | 115.45715 | 33816 ft | 495 kts | 89° |
| 2026-05-04 00:56 | 21.90155 | 115.49429 | 34310 ft | 492 kts | 89° |
| 2026-05-04 00:56 | 21.90260 | 115.53078 | 34765 ft | 490 kts | 89° |
| 2026-05-04 00:57 | 21.90365 | 115.56790 | 35172 ft | 489 kts | 88° |
| 2026-05-04 00:57 | 21.90560 | 115.60460 | 35514 ft | 489 kts | 85° |
| 2026-05-04 00:57 | 21.90951 | 115.64083 | 35760 ft | 491 kts | 81° |
| 2026-05-04 00:57 | 21.91561 | 115.67747 | 35969 ft | 492 kts | 78° |
| 2026-05-04 00:58 | 21.92291 | 115.71362 | 36194 ft | 493 kts | 77° |
| 2026-05-04 00:58 | 21.93047 | 115.74998 | 36420 ft | 494 kts | 77° |
| 2026-05-04 00:58 | 21.93793 | 115.78596 | 36607 ft | 496 kts | 77° |
| 2026-05-04 00:58 | 21.94551 | 115.82272 | 36793 ft | 497 kts | 77° |
| 2026-05-04 00:59 | 21.95295 | 115.85927 | 36982 ft | 498 kts | 77° |
| 2026-05-04 00:59 | 21.96024 | 115.89529 | 37104 ft | 500 kts | 77° |
| 2026-05-04 00:59 | 21.96772 | 115.93237 | 37105 ft | 500 kts | 77° |
| 2026-05-04 01:00 | 21.98243 | 116.00552 | 37106 ft | 500 kts | 77° |
| 2026-05-04 01:00 | 21.99775 | 116.07848 | 37097 ft | 499 kts | 71° |
| 2026-05-04 01:00 | 22.01187 | 116.11257 | 37099 ft | 495 kts | 56° |
| 2026-05-04 01:01 | 22.03263 | 116.14144 | 37106 ft | 489 kts | 41° |
| 2026-05-04 01:01 | 22.05880 | 116.16417 | 37111 ft | 481 kts | 27° |
| 2026-05-04 01:01 | 22.08876 | 116.17976 | 37113 ft | 471 kts | 13° |
| 2026-05-04 01:01 | 22.12036 | 116.18761 | 37113 ft | 462 kts | 0° |
| 2026-05-04 01:02 | 22.15262 | 116.18847 | 37123 ft | 456 kts | 352° |
| 2026-05-04 01:02 | 22.21574 | 116.18563 | 37113 ft | 455 kts | 352° |
| 2026-05-04 01:03 | 22.27922 | 116.18295 | 37114 ft | 456 kts | 352° |
| 2026-05-04 01:03 | 22.34291 | 116.18068 | 37115 ft | 457 kts | 352° |
| 2026-05-04 01:04 | 22.40671 | 116.17856 | 37117 ft | 457 kts | 352° |
| 2026-05-04 01:04 | 22.47049 | 116.17646 | 37117 ft | 456 kts | 352° |
| 2026-05-04 01:05 | 22.53423 | 116.17438 | 37117 ft | 457 kts | 352° |
| 2026-05-04 01:05 | 22.59828 | 116.17228 | 37119 ft | 458 kts | 352° |
| 2026-05-04 01:06 | 22.66279 | 116.17408 | 37122 ft | 467 kts | 1° |
| 2026-05-04 01:06 | 22.72656 | 116.19105 | 37123 ft | 477 kts | 15° |
| 2026-05-04 01:07 | 22.78621 | 116.22398 | 37122 ft | 487 kts | 29° |
| 2026-05-04 01:07 | 22.84087 | 116.26856 | 37127 ft | 489 kts | 34° |
| 2026-05-04 01:08 | 22.89441 | 116.31402 | 37126 ft | 490 kts | 33° |
| 2026-05-04 01:08 | 22.94845 | 116.35914 | 37127 ft | 489 kts | 33° |
| 2026-05-04 01:09 | 23.00302 | 116.40416 | 37128 ft | 490 kts | 33° |
| 2026-05-04 01:09 | 23.05718 | 116.44878 | 37131 ft | 491 kts | 33° |
| 2026-05-04 01:10 | 23.11164 | 116.49378 | 37131 ft | 491 kts | 33° |
| 2026-05-04 01:10 | 23.16607 | 116.53886 | 37132 ft | 492 kts | 33° |
| 2026-05-04 01:11 | 23.22048 | 116.58398 | 37136 ft | 492 kts | 32° |
| 2026-05-04 01:11 | 23.27501 | 116.62924 | 37141 ft | 491 kts | 32° |
| 2026-05-04 01:12 | 23.32953 | 116.67454 | 37143 ft | 493 kts | 33° |
| 2026-05-04 01:12 | 23.38379 | 116.71970 | 37143 ft | 493 kts | 33° |
| 2026-05-04 01:13 | 23.43768 | 116.76644 | 37148 ft | 496 kts | 37° |
| 2026-05-04 01:13 | 23.48719 | 116.81900 | 37154 ft | 500 kts | 43° |
| 2026-05-04 01:14 | 23.53523 | 116.87391 | 37157 ft | 500 kts | 43° |
| 2026-05-04 01:14 | 23.58325 | 116.92877 | 37154 ft | 500 kts | 43° |
| 2026-05-04 01:15 | 23.63157 | 116.98377 | 37158 ft | 502 kts | 42° |
| 2026-05-04 01:15 | 23.67984 | 117.03876 | 37157 ft | 501 kts | 43° |
| 2026-05-04 01:16 | 23.72804 | 117.09373 | 37160 ft | 502 kts | 42° |
| 2026-05-04 01:16 | 23.77704 | 117.14769 | 37168 ft | 500 kts | 38° |
| 2026-05-04 01:17 | 23.82889 | 117.19853 | 37172 ft | 500 kts | 37° |
| 2026-05-04 01:17 | 23.88073 | 117.24881 | 37175 ft | 501 kts | 37° |
| 2026-05-04 01:18 | 23.93296 | 117.29976 | 37184 ft | 501 kts | 37° |
| 2026-05-04 01:18 | 23.98468 | 117.35036 | 37195 ft | 502 kts | 37° |
| 2026-05-04 01:19 | 24.03690 | 117.40159 | 37197 ft | 502 kts | 37° |
| 2026-05-04 01:19 | 24.08868 | 117.45244 | 37205 ft | 503 kts | 37° |
| 2026-05-04 01:20 | 24.14048 | 117.50447 | 37206 ft | 505 kts | 40° |
| 2026-05-04 01:20 | 24.18853 | 117.56055 | 37206 ft | 506 kts | 44° |
| 2026-05-04 01:21 | 24.23610 | 117.61796 | 37196 ft | 506 kts | 44° |
| 2026-05-04 01:21 | 24.28338 | 117.67495 | 37190 ft | 506 kts | 44° |
| 2026-05-04 01:22 | 24.33094 | 117.73219 | 37188 ft | 507 kts | 44° |
| 2026-05-04 01:22 | 24.37834 | 117.78929 | 37081 ft | 504 kts | 44° |
| 2026-05-04 01:22 | 24.40210 | 117.81795 | 36431 ft | 506 kts | 44° |
| 2026-05-04 01:23 | 24.42584 | 117.84653 | 35309 ft | 514 kts | 44° |
| 2026-05-04 01:23 | 24.45011 | 117.87573 | 34142 ft | 521 kts | 44° |
| 2026-05-04 01:23 | 24.47434 | 117.90499 | 33145 ft | 525 kts | 44° |
| 2026-05-04 01:23 | 24.49883 | 117.93461 | 32399 ft | 524 kts | 44° |
| 2026-05-04 01:24 | 24.52351 | 117.96455 | 31830 ft | 520 kts | 44° |
| 2026-05-04 01:24 | 24.54753 | 117.99367 | 31314 ft | 514 kts | 44° |
| 2026-05-04 01:24 | 24.57165 | 118.02276 | 30818 ft | 508 kts | 43° |
| 2026-05-04 01:24 | 24.59593 | 118.05070 | 30341 ft | 502 kts | 41° |
| 2026-05-04 01:25 | 24.62016 | 118.07795 | 29886 ft | 496 kts | 41° |
| 2026-05-04 01:25 | 24.64422 | 118.10493 | 29400 ft | 491 kts | 41° |
| 2026-05-04 01:25 | 24.66790 | 118.13164 | 28920 ft | 487 kts | 41° |
| 2026-05-04 01:25 | 24.69162 | 118.15855 | 28437 ft | 482 kts | 41° |
| 2026-05-04 01:26 | 24.71465 | 118.18472 | 27949 ft | 479 kts | 42° |
| 2026-05-04 01:26 | 24.73798 | 118.21124 | 27446 ft | 475 kts | 41° |
| 2026-05-04 01:26 | 24.76094 | 118.23739 | 26972 ft | 471 kts | 41° |
| 2026-05-04 01:26 | 24.78353 | 118.26314 | 26489 ft | 467 kts | 42° |
| 2026-05-04 01:27 | 24.80586 | 118.28862 | 26011 ft | 464 kts | 42° |
| 2026-05-04 01:27 | 24.82811 | 118.31404 | 25554 ft | 460 kts | 41° |
| 2026-05-04 01:27 | 24.85050 | 118.33963 | 25070 ft | 457 kts | 42° |
| 2026-05-04 01:27 | 24.87241 | 118.36467 | 24583 ft | 455 kts | 42° |
| 2026-05-04 01:28 | 24.89433 | 118.38977 | 24098 ft | 452 kts | 42° |
| 2026-05-04 01:28 | 24.91606 | 118.41467 | 23637 ft | 449 kts | 41° |
| 2026-05-04 01:28 | 24.93792 | 118.43972 | 23124 ft | 448 kts | 41° |
| 2026-05-04 01:28 | 24.95982 | 118.46479 | 22571 ft | 448 kts | 42° |
| 2026-05-04 01:29 | 24.98119 | 118.48927 | 22069 ft | 447 kts | 42° |
| 2026-05-04 01:29 | 25.00293 | 118.51422 | 21572 ft | 445 kts | 42° |
| 2026-05-04 01:29 | 25.02442 | 118.53891 | 21107 ft | 442 kts | 42° |
| 2026-05-04 01:29 | 25.04583 | 118.56354 | 20631 ft | 439 kts | 41° |
| 2026-05-04 01:30 | 25.06681 | 118.58765 | 20167 ft | 436 kts | 42° |
| 2026-05-04 01:30 | 25.08791 | 118.61190 | 19696 ft | 434 kts | 42° |
| 2026-05-04 01:30 | 25.10871 | 118.63621 | 19239 ft | 431 kts | 43° |
| 2026-05-04 01:30 | 25.12910 | 118.66071 | 18774 ft | 428 kts | 44° |
| 2026-05-04 01:31 | 25.14892 | 118.68474 | 18301 ft | 424 kts | 44° |
| 2026-05-04 01:31 | 25.16877 | 118.70882 | 17849 ft | 420 kts | 44° |
| 2026-05-04 01:31 | 25.18851 | 118.73271 | 17391 ft | 416 kts | 44° |
| 2026-05-04 01:31 | 25.20793 | 118.75623 | 16958 ft | 412 kts | 44° |
| 2026-05-04 01:32 | 25.22754 | 118.77994 | 16495 ft | 409 kts | 44° |
| 2026-05-04 01:32 | 25.24662 | 118.80302 | 16033 ft | 406 kts | 44° |
| 2026-05-04 01:32 | 25.26585 | 118.82631 | 15572 ft | 403 kts | 44° |
| 2026-05-04 01:32 | 25.28452 | 118.84893 | 15123 ft | 399 kts | 44° |
| 2026-05-04 01:33 | 25.30327 | 118.87166 | 14686 ft | 396 kts | 44° |
| 2026-05-04 01:33 | 25.32192 | 118.89423 | 14231 ft | 393 kts | 44° |
| 2026-05-04 01:33 | 25.34030 | 118.91650 | 13782 ft | 390 kts | 44° |
| 2026-05-04 01:33 | 25.35865 | 118.93820 | 13342 ft | 386 kts | 43° |
| 2026-05-04 01:34 | 25.37709 | 118.95964 | 12925 ft | 382 kts | 43° |
| 2026-05-04 01:34 | 25.39561 | 118.98106 | 12513 ft | 378 kts | 43° |
| 2026-05-04 01:34 | 25.41358 | 119.00191 | 12107 ft | 374 kts | 44° |
| 2026-05-04 01:34 | 25.43131 | 119.02254 | 11686 ft | 370 kts | 44° |
| 2026-05-04 01:35 | 25.44896 | 119.04312 | 11281 ft | 366 kts | 44° |
| 2026-05-04 01:35 | 25.46657 | 119.06369 | 10881 ft | 362 kts | 45° |
| 2026-05-04 01:35 | 25.48378 | 119.08380 | 10483 ft | 358 kts | 45° |
| 2026-05-04 01:35 | 25.50080 | 119.10373 | 10142 ft | 352 kts | 45° |
| 2026-05-04 01:36 | 25.51739 | 119.12315 | 9966 ft | 340 kts | 45° |
| 2026-05-04 01:36 | 25.53330 | 119.14184 | 9870 ft | 325 kts | 46° |
| 2026-05-04 01:36 | 25.54877 | 119.15996 | 9555 ft | 320 kts | 46° |
| 2026-05-04 01:36 | 25.56393 | 119.17770 | 9257 ft | 314 kts | 46° |
| 2026-05-04 01:37 | 25.57886 | 119.19524 | 8936 ft | 310 kts | 46° |
| 2026-05-04 01:37 | 25.59364 | 119.21259 | 8589 ft | 306 kts | 46° |
| 2026-05-04 01:37 | 25.60822 | 119.22978 | 8262 ft | 301 kts | 48° |
| 2026-05-04 01:37 | 25.62157 | 119.24768 | 7778 ft | 302 kts | 53° |
| 2026-05-04 01:38 | 25.63328 | 119.26658 | 7550 ft | 294 kts | 56° |
| 2026-05-04 01:38 | 25.64443 | 119.28545 | 7264 ft | 287 kts | 57° |
| 2026-05-04 01:38 | 25.65525 | 119.30385 | 6960 ft | 281 kts | 56° |
| 2026-05-04 01:38 | 25.66584 | 119.32187 | 6632 ft | 277 kts | 56° |
| 2026-05-04 01:39 | 25.67630 | 119.33957 | 6311 ft | 273 kts | 57° |
| 2026-05-04 01:39 | 25.68673 | 119.35724 | 5989 ft | 268 kts | 56° |
| 2026-05-04 01:39 | 25.69684 | 119.37428 | 5669 ft | 263 kts | 57° |
| 2026-05-04 01:39 | 25.70682 | 119.39120 | 5346 ft | 259 kts | 56° |
| 2026-05-04 01:40 | 25.71668 | 119.40778 | 5057 ft | 254 kts | 56° |
| 2026-05-04 01:40 | 25.72633 | 119.42407 | 4833 ft | 245 kts | 56° |
| 2026-05-04 01:40 | 25.73540 | 119.43935 | 4756 ft | 232 kts | 56° |
| 2026-05-04 01:40 | 25.74408 | 119.45397 | 4651 ft | 221 kts | 56° |
| 2026-05-04 01:41 | 25.75142 | 119.46868 | 4480 ft | 214 kts | 74° |
| 2026-05-04 01:41 | 25.75049 | 119.48488 | 4254 ft | 215 kts | 109° |
| 2026-05-04 01:41 | 25.74352 | 119.49969 | 4035 ft | 217 kts | 114° |
| 2026-05-04 01:41 | 25.73638 | 119.51456 | 3796 ft | 215 kts | 112° |
| 2026-05-04 01:42 | 25.73055 | 119.52952 | 3510 ft | 210 kts | 94° |
| 2026-05-04 01:42 | 25.73287 | 119.54472 | 3236 ft | 196 kts | 57° |
| 2026-05-04 01:42 | 25.74225 | 119.55540 | 3233 ft | 197 kts | 34° |
| 2026-05-04 01:42 | 25.75453 | 119.56273 | 3272 ft | 199 kts | 27° |
| 2026-05-04 01:43 | 25.76720 | 119.56926 | 3260 ft | 200 kts | 27° |
| 2026-05-04 01:43 | 25.77987 | 119.57597 | 3060 ft | 200 kts | 28° |
| 2026-05-04 01:43 | 25.79224 | 119.58278 | 2806 ft | 198 kts | 28° |
| 2026-05-04 01:43 | 25.80439 | 119.58962 | 2557 ft | 186 kts | 29° |
| 2026-05-04 01:44 | 25.81534 | 119.59583 | 2378 ft | 167 kts | 30° |
| 2026-05-04 01:44 | 25.82543 | 119.60156 | 2117 ft | 155 kts | 30° |
| 2026-05-04 01:44 | 25.83462 | 119.60677 | 1890 ft | 143 kts | 31° |
| 2026-05-04 01:44 | 25.84329 | 119.61169 | 1689 ft | 139 kts | 31° |
| 2026-05-04 01:45 | 25.85198 | 119.61663 | 1515 ft | 139 kts | 31° |
| 2026-05-04 01:45 | 25.86056 | 119.62150 | 1372 ft | 137 kts | 30° |
| 2026-05-04 01:45 | 25.87754 | 119.63108 | 1011 ft | 135 kts | 30° |
| 2026-05-04 01:46 | 25.88602 | 119.63587 | 822 ft | 135 kts | 30° |
| 2026-05-04 01:46 | 25.89440 | 119.64060 | 643 ft | 134 kts | 30° |
| 2026-05-04 01:46 | 25.90280 | 119.64549 | 458 ft | 134 kts | 30° |
| 2026-05-04 01:46 | 25.91112 | 119.65008 | 320 ft | 134 kts | 28° |
| 2026-05-04 01:47 | 25.91952 | 119.65480 | 151 ft | 133 kts | 31° |
| 2026-05-04 01:47 | 25.92771 | 119.65944 | 56 ft | 125 kts | 29° |
| 2026-05-04 01:47 | 25.93430 | 119.66318 | 55 ft | 79 kts | 26° |
| 2026-05-04 01:47 | 25.93791 | 119.66519 | 55 ft | 47 kts | 27° |
| 2026-05-04 01:48 | 25.93999 | 119.66681 | 55 ft | 29 kts | 45° |
| 2026-05-04 01:48 | 25.94075 | 119.66799 | 55 ft | 9 kts | 59° |
| 2026-05-04 01:48 | 25.94073 | 119.66868 | 55 ft | 10 kts | 140° |
| 2026-05-04 01:48 | 25.94002 | 119.66861 | 55 ft | 11 kts | 206° |
| 2026-05-04 01:49 | 25.93928 | 119.66821 | 55 ft | 11 kts | 207° |
| 2026-05-04 01:49 | 25.93850 | 119.66775 | 55 ft | 12 kts | 207° |
| 2026-05-04 01:49 | 25.93768 | 119.66730 | 55 ft | 13 kts | 207° |
| 2026-05-04 01:49 | 25.93681 | 119.66688 | 55 ft | 13 kts | 175° |
| 2026-05-04 01:50 | 25.93622 | 119.66763 | 55 ft | 11 kts | 125° |
| 2026-05-04 01:50 | 25.93605 | 119.66836 | 55 ft | 7 kts | 69° |
| 2026-05-04 01:50 | 25.93600 | 119.66889 | 55 ft | 5 kts | 112° |
| 2026-05-04 01:50 | 25.93584 | 119.66927 | 55 ft | 4 kts | 117° |
| 2026-05-04 01:51 | 25.93581 | 119.66935 | 55 ft | 0 kts | 118° |